Time;durP1;ratioP1;P1;durP2;ratioP2;P2;SDS_P1;SDS_P2;PMS_P1;PMS_P2;Temp;Humidity;BMP_temperature;BMP_pressure;BME280_temperature;BME280_humidity;BME280_pressure;Samples;Min_cycle;Max_cycle;Signal;HPM_P1;HPM_P2
2022/02/19 00:00:50;;;;;;;;;75.25;58.25;14.30;36.60;;;;;;4900813;29;8808;-68
2022/02/19 00:03:16;;;;;;;;;80.50;65.50;14.40;36.70;;;;;;4901035;29;8789;-68
2022/02/19 00:05:42;;;;;;;;;74.25;58.75;14.40;36.60;;;;;;4900990;29;8845;-67
2022/02/19 00:08:13;;;;;;;;;75.75;60.50;14.50;36.50;;;;;;4901201;29;8801;-67
2022/02/19 00:10:40;;;;;;;;;80.75;61.25;14.50;36.40;;;;;;4900964;29;8785;-67
2022/02/19 00:13:06;;;;;;;;;83.25;67.50;14.20;36.50;;;;;;4901161;29;8773;-68
2022/02/19 00:15:32;;;;;;;;;80.75;64.75;14.20;36.80;;;;;;4901069;29;8774;-68
2022/02/19 00:17:58;;;;;;;;;86.25;72.50;14.30;36.70;;;;;;4901246;29;8813;-68
2022/02/19 00:20:24;;;;;;;;;73.25;58.00;14.20;36.50;;;;;;4901035;29;8828;-67
2022/02/19 00:22:50;;;;;;;;;79.00;62.50;14.00;36.80;;;;;;4901138;29;8860;-68
2022/02/19 00:25:16;;;;;;;;;71.25;57.50;13.90;37.40;;;;;;4900789;29;8793;-67
2022/02/19 00:27:44;;;;;;;;;68.25;57.25;14.10;37.20;;;;;;4900502;29;8782;-68
2022/02/19 00:30:10;;;;;;;;;72.25;57.25;14.20;36.90;;;;;;4900817;29;8860;-68
2022/02/19 00:32:36;;;;;;;;;73.75;59.25;14.20;36.50;;;;;;4900696;29;8806;-67
2022/02/19 00:35:02;;;;;;;;;72.50;56.25;14.20;36.40;;;;;;4900662;29;9463;-68
2022/02/19 00:37:28;;;;;;;;;69.00;56.00;14.00;36.90;;;;;;4900618;29;8815;-68
2022/02/19 00:39:55;;;;;;;;;69.75;56.25;14.20;37.10;;;;;;4900616;29;8766;-66
2022/02/19 00:42:21;;;;;;;;;73.25;57.75;14.30;36.50;;;;;;4900504;29;8956;-67
2022/02/19 00:44:46;;;;;;;;;75.00;59.00;14.30;36.60;;;;;;4900709;29;9469;-67
2022/02/19 00:47:12;;;;;;;;;68.75;55.00;14.30;36.50;;;;;;4900421;29;8781;-66
2022/02/19 00:49:38;;;;;;;;;73.25;55.50;14.30;36.50;;;;;;4900231;29;8823;-66
2022/02/19 00:52:04;;;;;;;;;65.75;52.75;14.20;36.50;;;;;;4900338;29;8797;-67
2022/02/19 00:54:30;;;;;;;;;72.75;57.25;14.30;36.50;;;;;;4900315;29;8790;-66
2022/02/19 00:56:56;;;;;;;;;73.00;57.50;14.30;36.60;;;;;;4900263;29;8889;-66
2022/02/19 00:59:21;;;;;;;;;78.00;60.00;14.40;36.70;;;;;;4900415;29;8896;-67
2022/02/19 01:01:47;;;;;;;;;71.25;57.75;14.30;36.50;;;;;;4900233;29;8805;-67
2022/02/19 01:04:13;;;;;;;;;77.00;62.25;14.20;37.10;;;;;;4900073;29;8839;-66
2022/02/19 01:06:39;;;;;;;;;70.75;57.00;14.20;36.70;;;;;;4900107;29;8789;-68
2022/02/19 01:09:05;;;;;;;;;74.50;59.00;14.30;36.70;;;;;;4900049;29;8786;-67
2022/02/19 01:11:31;;;;;;;;;76.75;60.25;14.30;37.00;;;;;;4899958;29;8829;-67
2022/02/19 01:13:56;;;;;;;;;74.25;57.00;14.30;36.80;;;;;;4900031;29;8857;-68
2022/02/19 01:16:23;;;;;;;;;68.75;55.75;14.20;36.70;;;;;;4899917;29;8785;-67
2022/02/19 01:18:49;;;;;;;;;75.00;59.50;14.30;36.90;;;;;;4900130;29;8788;-68
2022/02/19 01:21:19;;;;;;;;;71.75;59.25;14.40;36.60;;;;;;4899891;29;8777;-67
2022/02/19 01:23:45;;;;;;;;;73.75;59.25;14.40;37.20;;;;;;4899831;29;8789;-67
2022/02/19 01:26:11;;;;;;;;;71.75;57.00;14.40;37.00;;;;;;4899719;29;8913;-66
2022/02/19 01:28:37;;;;;;;;;75.75;59.50;14.40;36.60;;;;;;4900003;29;8868;-68
2022/02/19 01:31:03;;;;;;;;;77.75;62.25;14.20;36.90;;;;;;4899726;29;8769;-68
2022/02/19 01:33:28;;;;;;;;;67.75;53.00;14.10;37.30;;;;;;4899693;29;9005;-67
2022/02/19 01:35:54;;;;;;;;;76.50;60.00;14.10;37.40;;;;;;4899825;29;8891;-67
2022/02/19 01:38:20;;;;;;;;;76.25;59.50;14.10;36.80;;;;;;4899095;29;8845;-66
2022/02/19 01:40:46;;;;;;;;;79.75;61.50;14.00;36.70;;;;;;4899409;29;8934;-67
2022/02/19 01:43:12;;;;;;;;;76.00;59.25;14.10;37.60;;;;;;4899703;29;8916;-67
2022/02/19 01:45:38;;;;;;;;;65.50;52.75;14.10;37.50;;;;;;4899772;29;8817;-68
2022/02/19 01:48:04;;;;;;;;;69.00;55.75;14.00;37.30;;;;;;4899379;29;8810;-67
2022/02/19 01:50:30;;;;;;;;;82.25;72.75;14.10;37.20;;;;;;4898970;29;8782;-68
2022/02/19 01:52:56;;;;;;;;;83.75;72.25;13.70;37.60;;;;;;4899365;29;9453;-66
2022/02/19 01:55:22;;;;;;;;;82.00;65.25;13.80;37.70;;;;;;4899637;29;9436;-67
2022/02/19 01:57:48;;;;;;;;;86.00;71.50;13.50;37.90;;;;;;4899381;29;8802;-66
2022/02/19 02:00:15;;;;;;;;;87.25;75.75;12.80;39.40;;;;;;4899346;29;8770;-67
2022/02/19 02:02:42;;;;;;;;;87.75;73.00;12.50;40.50;;;;;;4899307;29;8797;-67
2022/02/19 02:05:08;;;;;;;;;85.50;70.00;12.40;40.90;;;;;;4899233;29;8837;-67
2022/02/19 02:07:35;;;;;;;;;76.25;60.75;12.40;41.00;;;;;;4899499;29;8789;-67
2022/02/19 02:10:01;;;;;;;;;70.00;57.50;12.50;41.20;;;;;;4899458;29;8901;-67
2022/02/19 02:12:27;;;;;;;;;78.00;60.50;12.70;41.10;;;;;;4899536;29;8852;-67
2022/02/19 02:14:53;;;;;;;;;64.25;52.00;12.60;41.10;;;;;;4899197;29;8786;-67
2022/02/19 02:17:18;;;;;;;;;64.75;52.50;12.70;41.10;;;;;;4899181;29;8796;-67
2022/02/19 02:19:44;;;;;;;;;63.25;52.00;12.90;40.80;;;;;;4899206;29;8774;-66
2022/02/19 02:22:14;;;;;;;;;56.25;48.25;12.70;41.20;;;;;;4898853;29;8873;-67
2022/02/19 02:24:40;;;;;;;;;57.75;47.50;12.80;41.20;;;;;;4899462;29;8805;-67
2022/02/19 02:27:08;;;;;;;;;60.50;46.50;12.50;41.70;;;;;;4899004;29;8785;-67
2022/02/19 02:29:45;;;;;;;;;55.00;44.75;12.60;42.20;;;;;;4899263;29;8890;-67
2022/02/19 02:32:11;;;;;;;;;59.75;48.00;12.40;41.50;;;;;;4898875;29;8844;-67
2022/02/19 02:34:54;;;;;;;;;53.50;45.25;12.50;41.50;;;;;;4899088;29;8896;-67
2022/02/19 02:37:20;;;;;;;;;59.50;47.25;12.00;42.30;;;;;;4899018;29;8770;-67
2022/02/19 02:39:50;;;;;;;;;59.00;50.00;12.00;42.30;;;;;;4898945;29;8789;-67
2022/02/19 02:42:18;;;;;;;;;63.00;50.00;12.30;42.30;;;;;;4899477;29;8814;-67
2022/02/19 02:44:44;;;;;;;;;63.50;51.00;12.30;41.70;;;;;;4898834;29;8818;-67
2022/02/19 02:47:10;;;;;;;;;62.50;49.50;12.50;42.10;;;;;;4898862;29;8789;-66
2022/02/19 02:49:37;;;;;;;;;66.50;52.50;12.70;41.10;;;;;;4899536;29;8778;-67
2022/02/19 02:52:04;;;;;;;;;63.75;50.75;12.80;40.60;;;;;;4902790;29;8785;-66
2022/02/19 02:54:30;;;;;;;;;71.25;56.25;12.80;40.80;;;;;;4902537;29;8781;-67
2022/02/19 02:56:56;;;;;;;;;67.50;54.75;12.90;40.70;;;;;;4902425;29;8786;-66
2022/02/19 02:59:22;;;;;;;;;74.25;57.50;13.00;40.60;;;;;;4902389;29;8781;-66
2022/02/19 03:01:48;;;;;;;;;80.25;61.75;13.20;40.30;;;;;;4901643;29;8828;-67
2022/02/19 03:04:14;;;;;;;;;114.25;99.75;13.00;40.00;;;;;;4902279;29;8903;-67
2022/02/19 03:06:39;;;;;;;;;92.25;80.00;12.90;40.40;;;;;;4902540;29;8813;-66
2022/02/19 03:09:05;;;;;;;;;89.75;76.75;13.10;40.50;;;;;;4902140;29;8797;-67
2022/02/19 03:11:31;;;;;;;;;97.50;84.00;12.90;40.60;;;;;;4902168;29;8848;-67
2022/02/19 03:13:56;;;;;;;;;121.75;112.50;12.80;40.80;;;;;;4902134;29;8781;-67
2022/02/19 03:16:22;;;;;;;;;136.00;124.75;12.60;41.00;;;;;;4902064;29;8816;-67
2022/02/19 03:18:48;;;;;;;;;148.75;140.25;12.40;41.80;;;;;;4901989;29;8778;-67
2022/02/19 03:21:14;;;;;;;;;131.75;116.25;12.20;42.30;;;;;;4902086;29;8804;-68
2022/02/19 03:23:39;;;;;;;;;129.25;113.75;10.90;45.20;;;;;;4901915;29;8781;-67
2022/02/19 03:26:07;;;;;;;;;156.50;145.50;10.60;47.50;;;;;;4901742;29;8904;-66
2022/02/19 03:28:34;;;;;;;;;141.00;124.25;10.80;46.90;;;;;;4901831;29;8793;-67
2022/02/19 03:31:00;;;;;;;;;140.50;125.25;11.10;46.60;;;;;;4901896;29;8809;-68
2022/02/19 03:33:26;;;;;;;;;152.50;132.25;11.30;45.80;;;;;;4901672;29;8809;-68
2022/02/19 03:35:54;;;;;;;;;146.25;130.25;11.80;44.60;;;;;;4901783;29;8773;-67
2022/02/19 03:38:21;;;;;;;;;135.00;121.75;12.10;43.90;;;;;;4901673;29;8789;-67
2022/02/19 03:40:47;;;;;;;;;110.75;98.75;12.20;43.10;;;;;;4901855;29;8825;-68
2022/02/19 03:43:13;;;;;;;;;97.00;89.50;12.20;42.90;;;;;;4901618;29;8808;-67
2022/02/19 03:45:41;;;;;;;;;102.25;94.00;12.30;42.80;;;;;;4901666;29;8932;-66
2022/02/19 03:48:07;;;;;;;;;88.75;72.50;12.50;42.60;;;;;;4901643;29;8794;-67
2022/02/19 03:50:33;;;;;;;;;87.75;67.50;12.70;42.00;;;;;;4901776;29;8781;-67
2022/02/19 03:52:59;;;;;;;;;93.00;84.75;12.20;42.40;;;;;;4901484;29;8876;-67
2022/02/19 03:55:24;;;;;;;;;96.25;89.00;12.20;42.70;;;;;;4901709;29;8973;-67
2022/02/19 03:57:50;;;;;;;;;91.50;80.00;11.70;43.80;;;;;;4901323;29;8785;-66
2022/02/19 04:00:16;;;;;;;;;97.25;89.50;11.70;44.20;;;;;;4901245;29;8867;-66
2022/02/19 04:02:43;;;;;;;;;112.25;100.50;12.00;43.80;;;;;;4900840;29;8988;-67
2022/02/19 04:05:13;;;;;;;;;129.00;115.25;12.10;43.20;;;;;;4901258;29;8892;-67
2022/02/19 04:07:38;;;;;;;;;129.50;112.00;12.10;43.30;;;;;;4900223;29;8801;-67
2022/02/19 04:10:06;;;;;;;;;119.50;109.75;12.10;42.70;;;;;;4901187;29;9380;-67
2022/02/19 04:12:32;;;;;;;;;142.00;128.25;12.10;43.60;;;;;;4901419;29;8829;-67
2022/02/19 04:14:58;;;;;;;;;135.00;115.50;12.20;43.00;;;;;;4901031;29;8817;-67
2022/02/19 04:17:24;;;;;;;;;128.25;113.00;12.30;42.80;;;;;;4901070;29;8811;-67
2022/02/19 04:19:52;;;;;;;;;132.75;126.50;12.40;42.70;;;;;;4900973;29;8794;-67
2022/02/19 04:22:17;;;;;;;;;131.50;121.25;12.50;42.50;;;;;;4900955;29;8926;-67
2022/02/19 04:24:45;;;;;;;;;133.25;122.50;12.20;42.50;;;;;;4900867;29;9433;-67
2022/02/19 04:27:11;;;;;;;;;124.25;108.25;11.80;44.30;;;;;;4900932;29;8793;-66
2022/02/19 04:29:37;;;;;;;;;103.50;95.25;11.80;44.00;;;;;;4901158;29;8774;-67
2022/02/19 04:32:03;;;;;;;;;91.00;79.25;12.10;43.50;;;;;;4900639;29;8774;-66
2022/02/19 04:34:28;;;;;;;;;88.50;76.00;12.20;43.30;;;;;;4901075;29;8812;-67
2022/02/19 04:36:54;;;;;;;;;91.25;72.75;11.70;43.90;;;;;;4900815;29;8876;-67
2022/02/19 04:39:20;;;;;;;;;87.50;72.00;11.60;44.30;;;;;;4900598;29;9460;-66
2022/02/19 04:41:46;;;;;;;;;71.75;57.25;11.70;44.30;;;;;;4900800;29;8833;-67
2022/02/19 04:44:13;;;;;;;;;70.75;57.50;11.00;46.00;;;;;;4900740;29;8769;-67
2022/02/19 04:46:38;;;;;;;;;70.75;58.25;10.70;46.90;;;;;;4900709;29;8797;-66
2022/02/19 04:49:04;;;;;;;;;66.00;53.25;10.70;47.20;;;;;;4900808;29;8797;-67
2022/02/19 04:51:30;;;;;;;;;67.00;55.00;11.00;46.10;;;;;;4900548;29;8808;-66
2022/02/19 04:53:56;;;;;;;;;65.75;51.75;11.40;45.10;;;;;;4900367;29;8793;-67
2022/02/19 04:56:22;;;;;;;;;60.00;49.00;11.50;44.80;;;;;;4900406;29;8777;-67
2022/02/19 04:58:48;;;;;;;;;64.25;51.00;11.60;44.40;;;;;;4900287;29;8789;-67
2022/02/19 05:01:14;;;;;;;;;54.25;46.75;11.70;44.10;;;;;;4900257;29;8786;-67
2022/02/19 05:03:40;;;;;;;;;88.00;70.00;11.60;43.90;;;;;;4900211;29;8789;-67
2022/02/19 05:06:06;;;;;;;;;93.25;75.50;10.60;46.10;;;;;;4899718;29;8841;-67
2022/02/19 05:08:31;;;;;;;;;87.00;72.75;10.80;46.50;;;;;;4900398;29;9527;-67
2022/02/19 05:10:58;;;;;;;;;100.75;90.75;10.90;46.30;;;;;;4899962;29;8917;-67
2022/02/19 05:13:24;;;;;;;;;94.00;79.75;11.00;45.80;;;;;;4897654;29;8836;-67
2022/02/19 05:15:50;;;;;;;;;92.00;71.75;10.90;46.00;;;;;;4890752;29;8810;-67
2022/02/19 05:18:17;;;;;;;;;103.00;87.50;11.10;45.40;;;;;;4881214;29;8783;-67
2022/02/19 05:20:44;;;;;;;;;110.75;97.50;11.40;44.80;;;;;;4881210;29;8799;-67
2022/02/19 05:23:10;;;;;;;;;105.00;97.50;11.40;44.60;;;;;;4881129;29;8799;-67
2022/02/19 05:25:40;;;;;;;;;126.75;111.00;11.00;45.50;;;;;;4880964;29;8865;-67
2022/02/19 05:28:06;;;;;;;;;94.00;83.00;11.00;46.00;;;;;;4881336;29;8776;-67
2022/02/19 05:30:31;;;;;;;;;106.25;97.00;11.20;45.50;;;;;;4881038;29;9411;-67
2022/02/19 05:32:57;;;;;;;;;101.25;89.00;11.20;45.40;;;;;;4880800;29;8831;-67
2022/02/19 05:35:23;;;;;;;;;84.75;71.50;11.10;44.80;;;;;;4880965;29;8810;-67
2022/02/19 05:37:49;;;;;;;;;83.00;63.50;11.00;45.40;;;;;;4880925;29;8795;-67
2022/02/19 05:40:14;;;;;;;;;90.75;75.25;11.20;45.00;;;;;;4881214;29;8888;-67
2022/02/19 05:42:40;;;;;;;;;79.25;63.00;11.30;44.60;;;;;;4892058;29;8829;-68
2022/02/19 05:45:06;;;;;;;;;71.25;58.00;11.30;44.20;;;;;;4899450;29;8916;-67
2022/02/19 05:47:32;;;;;;;;;73.00;58.25;11.40;44.20;;;;;;4899470;29;8793;-67
2022/02/19 05:49:58;;;;;;;;;77.00;61.25;11.30;43.70;;;;;;4899720;29;8813;-68
2022/02/19 05:52:24;;;;;;;;;74.50;58.00;11.50;43.70;;;;;;4899481;29;8794;-67
2022/02/19 05:54:53;;;;;;;;;76.25;59.75;11.10;44.10;;;;;;4899206;29;8805;-67
2022/02/19 05:57:19;;;;;;;;;74.00;59.50;11.00;45.00;;;;;;4898336;29;8914;-67
2022/02/19 05:59:46;;;;;;;;;76.50;59.50;11.40;44.50;;;;;;4898344;29;8794;-67
2022/02/19 06:02:12;;;;;;;;;77.00;59.25;11.50;43.80;;;;;;4899108;29;8805;-67
2022/02/19 06:04:38;;;;;;;;;76.50;59.50;11.40;44.10;;;;;;4885074;29;8833;-67
2022/02/19 06:07:04;;;;;;;;;81.50;64.75;11.60;43.70;;;;;;4899259;29;8789;-67
2022/02/19 06:09:29;;;;;;;;;81.75;66.25;11.60;43.50;;;;;;4899232;29;8784;-67
2022/02/19 06:11:55;;;;;;;;;72.25;57.50;11.80;43.50;;;;;;4899523;29;8821;-67
2022/02/19 06:14:21;;;;;;;;;79.00;61.75;11.90;43.20;;;;;;4898688;29;8854;-67
2022/02/19 06:16:49;;;;;;;;;77.25;61.00;12.00;43.20;;;;;;4899453;29;8805;-67
2022/02/19 06:19:15;;;;;;;;;79.50;60.00;12.10;43.30;;;;;;4898659;29;8785;-67
2022/02/19 06:21:41;;;;;;;;;77.25;62.75;12.10;43.00;;;;;;4899109;29;8797;-67
2022/02/19 06:24:06;;;;;;;;;77.00;61.25;12.20;42.80;;;;;;4899047;29;8824;-67
2022/02/19 06:26:32;;;;;;;;;82.00;66.00;12.30;42.20;;;;;;4902393;29;8805;-68
2022/02/19 06:28:58;;;;;;;;;83.75;63.75;12.30;42.10;;;;;;4902931;29;9400;-67
2022/02/19 06:31:24;;;;;;;;;85.00;72.00;12.30;42.20;;;;;;4903036;29;8780;-68
2022/02/19 06:33:51;;;;;;;;;87.00;69.50;12.40;42.40;;;;;;4902715;29;8907;-67
2022/02/19 06:36:18;;;;;;;;;96.00;86.50;12.40;42.50;;;;;;4903031;29;8790;-67
2022/02/19 06:38:43;;;;;;;;;131.50;124.00;12.30;42.40;;;;;;4902964;29;9594;-67
2022/02/19 06:41:10;;;;;;;;;185.00;172.75;12.30;42.70;;;;;;4902643;29;8821;-68
2022/02/19 06:43:36;;;;;;;;;192.75;181.50;11.80;43.50;;;;;;4902629;29;8884;-67
2022/02/19 06:46:03;;;;;;;;;176.75;165.25;11.50;44.60;;;;;;4902610;29;8816;-67
2022/02/19 06:48:29;;;;;;;;;202.75;185.75;11.00;45.40;;;;;;4902700;29;8793;-67
2022/02/19 06:50:56;;;;;;;;;204.00;191.25;10.80;46.20;;;;;;4902839;29;8797;-67
2022/02/19 06:53:22;;;;;;;;;192.00;178.50;11.10;45.80;;;;;;4902480;29;8901;-67
2022/02/19 06:55:48;;;;;;;;;205.00;188.75;11.10;46.30;;;;;;4902579;29;9503;-68
2022/02/19 06:58:14;;;;;;;;;186.50;175.25;11.50;46.00;;;;;;4902455;29;8904;-68
2022/02/19 07:00:40;;;;;;;;;182.50;161.00;11.90;44.70;;;;;;4901791;29;8801;-67
2022/02/19 07:03:06;;;;;;;;;177.00;163.50;12.30;43.80;;;;;;4901086;29;8801;-67
2022/02/19 07:05:32;;;;;;;;;189.00;168.75;12.50;43.40;;;;;;4901514;29;8924;-67
2022/02/19 07:07:57;;;;;;;;;166.50;149.50;12.70;42.90;;;;;;4900522;29;8852;-69
2022/02/19 07:10:23;;;;;;;;;182.75;162.50;12.50;42.60;;;;;;4901941;29;8805;-67
2022/02/19 07:12:49;;;;;;;;;176.25;162.25;12.50;43.20;;;;;;4901905;29;8832;-67
2022/02/19 07:15:20;;;;;;;;;159.50;142.25;12.50;43.20;;;;;;4901160;29;8802;-67
2022/02/19 07:17:53;;;;;;;;;153.75;141.00;12.60;42.70;;;;;;4900679;29;8832;-67
2022/02/19 07:20:21;;;;;;;;;162.50;144.25;12.20;43.20;;;;;;4901490;29;8770;-67
2022/02/19 07:22:50;;;;;;;;;156.25;141.50;12.60;42.90;;;;;;4900166;29;8801;-67
2022/02/19 07:25:17;;;;;;;;;146.25;132.50;12.90;42.50;;;;;;4899571;29;8840;-68
2022/02/19 07:27:45;;;;;;;;;90.00;81.25;12.90;42.50;;;;;;4901731;29;8777;-67
2022/02/19 07:30:17;;;;;;;;;93.50;84.00;12.90;41.90;;;;;;4901761;29;8778;-67
2022/02/19 07:32:44;;;;;;;;;93.50;81.25;11.80;44.80;;;;;;4901668;29;8825;-66
2022/02/19 07:35:10;;;;;;;;;81.25;64.75;12.30;44.70;;;;;;4901668;29;8969;-67
2022/02/19 07:37:38;;;;;;;;;88.75;77.00;12.50;44.00;;;;;;4900292;29;9444;-66
2022/02/19 07:40:05;;;;;;;;;80.25;65.25;13.00;43.60;;;;;;4900133;29;8805;-67
2022/02/19 07:42:31;;;;;;;;;88.25;84.00;13.40;41.50;;;;;;4898031;29;8972;-67
2022/02/19 07:44:57;;;;;;;;;82.75;65.50;13.50;41.30;;;;;;4895846;29;8958;-67
2022/02/19 07:47:28;;;;;;;;;82.75;66.25;13.90;40.90;;;;;;4898970;29;8819;-67
2022/02/19 07:58:20;;;;;;;;;89.25;81.75;14.80;38.90;;;;;;4899737;29;8943;-67
2022/02/19 08:00:50;;;;;;;;;94.75;86.50;14.60;39.70;;;;;;4900289;29;8789;-67
2022/02/19 08:03:17;;;;;;;;;87.50;77.25;14.70;39.80;;;;;;4900858;29;8904;-67
2022/02/19 08:05:43;;;;;;;;;93.75;81.00;14.90;39.00;;;;;;4899379;29;8853;-67
2022/02/19 08:08:10;;;;;;;;;85.00;78.00;15.00;38.90;;;;;;4899480;29;8774;-67
2022/02/19 08:10:36;;;;;;;;;88.00;77.75;15.20;38.40;;;;;;4899368;29;8765;-67
2022/02/19 08:13:12;;;;;;;;;75.75;59.00;15.30;38.20;;;;;;4900757;29;8807;-69
2022/02/19 08:15:38;;;;;;;;;70.25;56.50;15.50;36.80;;;;;;4900031;29;8893;-69
2022/02/19 08:18:05;;;;;;;;;65.25;50.00;15.70;36.10;;;;;;4901218;29;8782;-67
2022/02/19 08:20:31;;;;;;;;;53.75;45.00;15.60;36.10;;;;;;4900854;29;8776;-66
2022/02/19 08:22:58;;;;;;;;;59.25;47.50;15.30;36.10;;;;;;4900980;29;9479;-66
2022/02/19 08:25:24;;;;;;;;;64.00;48.75;14.70;37.80;;;;;;4901009;29;8809;-69
2022/02/19 08:27:50;;;;;;;;;51.50;42.50;15.00;37.70;;;;;;4900418;29;8813;-68
2022/02/19 08:30:16;;;;;;;;;53.75;44.75;14.60;38.60;;;;;;4900312;29;8836;-67
2022/02/19 08:32:41;;;;;;;;;61.25;49.00;14.70;38.70;;;;;;4900103;29;8869;-68
2022/02/19 08:35:08;;;;;;;;;56.00;46.00;15.20;38.40;;;;;;4900725;29;8813;-70
2022/02/19 08:37:34;;;;;;;;;57.75;48.00;15.40;38.30;;;;;;4900560;29;8825;-68
2022/02/19 08:40:00;;;;;;;;;60.75;50.25;15.40;38.60;;;;;;4900665;29;8817;-67
2022/02/19 08:42:26;;;;;;;;;56.25;46.50;15.80;37.90;;;;;;4900986;29;8845;-68
2022/02/19 08:44:51;;;;;;;;;47.50;39.50;15.70;38.10;;;;;;4900723;29;8836;-70
2022/02/19 08:47:17;;;;;;;;;57.75;44.25;15.80;37.60;;;;;;4900052;29;9518;-67
2022/02/19 08:49:43;;;;;;;;;50.25;42.50;15.70;37.80;;;;;;4899082;29;9482;-67
2022/02/19 08:52:09;;;;;;;;;49.25;40.75;15.30;39.10;;;;;;4899121;29;8849;-65
2022/02/19 08:54:35;;;;;;;;;57.00;48.00;15.20;40.40;;;;;;4899117;29;8795;-68
2022/02/19 08:57:02;;;;;;;;;51.50;42.75;15.30;40.00;;;;;;4899040;29;8751;-67
2022/02/19 08:59:27;;;;;;;;;47.75;39.25;15.40;39.70;;;;;;4896641;29;8830;-69
2022/02/19 09:01:55;;;;;;;;;52.50;41.00;15.60;39.60;;;;;;4899438;29;8801;-68
2022/02/19 09:04:21;;;;;;;;;51.75;41.75;15.70;39.90;;;;;;4900109;29;8782;-68
2022/02/19 09:06:47;;;;;;;;;54.50;43.75;15.60;40.10;;;;;;4900216;29;8799;-69
2022/02/19 09:09:13;;;;;;;;;53.50;40.50;15.90;39.50;;;;;;4900179;29;8785;-72
2022/02/19 09:11:40;;;;;;;;;56.00;43.50;16.10;39.00;;;;;;4900047;29;8926;-71
2022/02/19 09:14:06;;;;;;;;;53.25;45.25;16.40;38.40;;;;;;4900327;29;9656;-70
2022/02/19 09:16:36;;;;;;;;;53.25;43.50;16.70;37.60;;;;;;4900272;29;8763;-70
2022/02/19 09:19:04;;;;;;;;;47.00;39.25;16.70;38.00;;;;;;4899815;29;8774;-70
2022/02/19 09:21:30;;;;;;;;;49.00;41.00;16.90;37.00;;;;;;4899961;29;8763;-70
2022/02/19 09:23:57;;;;;;;;;50.25;41.75;17.30;36.90;;;;;;4900179;29;8775;-72
2022/02/19 09:26:23;;;;;;;;;47.50;39.75;17.80;35.50;;;;;;4900107;29;8886;-70
2022/02/19 09:28:50;;;;;;;;;40.00;35.00;17.90;34.50;;;;;;4899908;29;8808;-71
2022/02/19 09:31:18;;;;;;;;;47.00;39.50;18.60;34.10;;;;;;4900003;29;8763;-71
2022/02/19 09:33:44;;;;;;;;;46.25;39.50;18.80;32.90;;;;;;4899670;29;8814;-71
2022/02/19 09:36:11;;;;;;;;;47.50;40.50;18.90;32.80;;;;;;4899781;29;8767;-71
2022/02/19 09:38:38;;;;;;;;;50.25;41.00;18.70;33.20;;;;;;4899771;29;8814;-73
2022/02/19 09:41:07;;;;;;;;;43.25;37.75;18.90;33.00;;;;;;4899682;29;8819;-77
2022/02/19 09:43:34;;;;;;;;;47.00;37.67;19.10;32.00;;;;;;4899825;29;8787;-73
2022/02/19 09:46:05;;;;;;;;;33.00;31.67;19.00;32.20;;;;;;4899587;29;8895;-72
2022/02/19 09:48:32;;;;;;;;;43.50;37.50;18.90;31.50;;;;;;4898819;29;8787;-78
2022/02/19 09:50:58;;;;;;;;;50.50;42.75;19.10;31.60;;;;;;4897895;29;8842;-71
2022/02/19 09:53:28;;;;;;;;;66.50;53.75;18.80;31.30;;;;;;4899368;29;8779;-74
2022/02/19 09:55:55;;;;;;;;;54.00;45.00;19.10;32.00;;;;;;4899445;29;8786;-72
2022/02/19 09:58:23;;;;;;;;;49.50;41.50;19.20;32.10;;;;;;4899619;29;8805;-76
2022/02/19 10:00:49;;;;;;;;;39.25;35.00;19.40;32.30;;;;;;4898867;29;8798;-72
2022/02/19 10:03:20;;;;;;;;;49.75;41.50;19.60;32.70;;;;;;4899288;29;8866;-70
2022/02/19 10:05:46;;;;;;;;;51.25;44.00;19.30;32.80;;;;;;4899499;29;9421;-70
2022/02/19 10:08:12;;;;;;;;;47.75;39.25;19.00;34.00;;;;;;4899621;29;8771;-71
2022/02/19 10:10:46;;;;;;;;;48.75;41.25;19.80;33.10;;;;;;4899084;29;8815;-68
2022/02/19 10:13:27;;;;;;;;;46.25;38.00;20.20;32.20;;;;;;4899240;29;8916;-71
2022/02/19 10:15:53;;;;;;;;;50.25;38.75;19.40;33.90;;;;;;4899237;29;8771;-70
2022/02/19 10:18:26;;;;;;;;;35.33;32.67;19.60;33.60;;;;;;4899395;29;8798;-70
2022/02/19 10:20:54;;;;;;;;;31.67;30.00;19.60;33.00;;;;;;4899030;29;8786;-70
2022/02/19 10:23:23;;;;;;;;;29.33;28.00;19.70;33.00;;;;;;4899119;29;8744;-69
2022/02/19 10:26:04;;;;;;;;;26.00;24.00;19.80;32.50;;;;;;4899021;29;8921;-70
2022/02/19 10:28:29;;;;;;;;;29.67;29.33;19.80;31.90;;;;;;4899035;29;8875;-67
2022/02/19 10:30:55;;;;;;;;;27.00;24.00;20.70;31.40;;;;;;4899045;29;8897;-67
2022/02/19 10:33:26;;;;;;;;;25.67;23.00;20.20;30.60;;;;;;4898761;29;8933;-68
2022/02/19 10:35:53;;;;;;;;;27.67;27.67;20.10;31.90;;;;;;4898959;29;8814;-66
2022/02/19 10:38:20;;;;;;;;;19.67;17.33;21.00;30.50;;;;;;4899132;29;8799;-68
2022/02/19 10:40:57;;;;;;;;;24.67;24.00;20.80;29.70;;;;;;4897940;29;8926;-66
2022/02/19 10:43:30;;;;;;;;;24.33;20.00;22.10;29.20;;;;;;4896025;29;8884;-67
2022/02/19 10:45:57;;;;;;;;;32.33;30.33;23.60;28.20;;;;;;4897632;29;8801;-66
2022/02/19 10:48:24;;;;;;;;;34.33;31.33;25.60;26.50;;;;;;4897838;29;8797;-66
2022/02/19 10:50:50;;;;;;;;;36.33;33.33;23.80;26.50;;;;;;4897536;29;8748;-71
2022/02/19 10:53:29;;;;;;;;;44.00;38.33;22.50;28.40;;;;;;4898003;29;8778;-70
2022/02/19 10:55:56;;;;;;;;;38.00;33.33;22.10;29.50;;;;;;4895514;29;8769;-69
2022/02/19 10:58:22;;;;;;;;;40.67;34.33;21.70;29.80;;;;;;4898052;29;8774;-67
2022/02/19 11:00:48;;;;;;;;;32.33;29.33;22.00;29.90;;;;;;4895606;29;8808;-71
2022/02/19 11:03:16;;;;;;;;;28.00;27.67;22.40;28.90;;;;;;4898817;29;8966;-67
2022/02/19 11:05:42;;;;;;;;;28.67;26.67;23.30;28.30;;;;;;4898793;29;8817;-67
2022/02/19 11:08:09;;;;;;;;;31.67;30.00;23.50;28.80;;;;;;4898725;29;8801;-67
2022/02/19 11:10:35;;;;;;;;;33.33;32.33;26.60;26.00;;;;;;4899181;29;8816;-67
2022/02/19 11:13:02;;;;;;;;;33.00;29.67;25.20;25.30;;;;;;4902473;29;9562;-70
2022/02/19 11:15:28;;;;;;;;;33.00;30.33;23.00;27.30;;;;;;4902145;29;8794;-70
2022/02/19 11:17:55;;;;;;;;;28.00;27.33;22.10;28.80;;;;;;4902345;29;8776;-68
2022/02/19 11:20:25;;;;;;;;;28.00;28.00;21.70;29.40;;;;;;4902425;29;8777;-68
2022/02/19 11:22:57;;;;;;;;;30.33;29.67;22.30;29.00;;;;;;4902070;29;8789;-68
2022/02/19 11:25:24;;;;;;;;;31.67;30.00;24.00;28.30;;;;;;4901992;29;8813;-67
2022/02/19 11:28:12;;;;;;;;;32.00;31.00;27.10;25.60;;;;;;4902333;29;8816;-68
2022/02/19 11:30:50;;;;;;;;;34.67;32.67;30.70;22.80;;;;;;4901725;29;8932;-68
2022/02/19 11:33:18;;;;;;;;;27.33;27.33;32.80;20.90;;;;;;4901690;29;8813;-68
2022/02/19 11:35:45;;;;;;;;;21.00;21.00;33.40;19.40;;;;;;4902048;29;9825;-68
2022/02/19 11:38:23;;;;;;;;;25.00;25.00;34.00;19.10;;;;;;4901706;29;11589;-70
2022/02/19 11:40:52;;;;;;;;;22.67;22.67;32.90;18.90;;;;;;4901590;29;11574;-69
2022/02/19 11:43:38;;;;;;;;;21.00;21.00;28.90;21.70;;;;;;4901803;29;11567;-68
2022/02/19 11:46:16;;;;;;;;;19.67;19.67;30.70;21.80;;;;;;4901753;29;11568;-69
2022/02/19 11:48:47;;;;;;;;;19.67;19.67;29.60;20.70;;;;;;4901517;29;11671;-69
2022/02/19 11:51:21;;;;;;;;;28.33;28.33;28.60;22.40;;;;;;4901491;29;11545;-70
2022/02/19 11:53:49;;;;;;;;;23.67;23.67;27.80;22.90;;;;;;4901512;29;8793;-70
2022/02/19 11:56:37;;;;;;;;;28.00;27.00;28.30;23.10;;;;;;4901485;29;8766;-68
2022/02/19 11:59:13;;;;;;;;;28.33;28.33;28.70;22.50;;;;;;4901433;29;8868;-69
2022/02/19 12:01:45;;;;;;;;;14.00;14.00;29.50;22.30;;;;;;4901317;29;8797;-70
2022/02/19 12:04:12;;;;;;;;;19.00;19.00;32.20;21.00;;;;;;4901624;29;8770;-68
2022/02/19 12:06:39;;;;;;;;;22.67;22.67;34.00;19.70;;;;;;4901071;29;11650;-68
2022/02/19 12:09:13;;;;;;;;;22.00;22.00;32.60;19.50;;;;;;4901134;29;11531;-68
2022/02/19 12:12:00;;;;;;;;;19.00;19.00;33.10;20.20;;;;;;4900979;29;12214;-69
2022/02/19 12:14:41;;;;;;;;;19.00;19.00;34.50;19.50;;;;;;4901021;29;11541;-70
2022/02/19 12:17:11;;;;;;;;;17.25;17.25;34.50;19.10;;;;;;4901207;29;12178;-68
2022/02/19 12:19:54;;;;;;;;;14.50;14.50;33.70;19.20;;;;;;4901209;29;12286;-69
2022/02/19 12:22:37;;;;;;;;;16.25;16.25;33.50;19.50;;;;;;4900591;29;11514;-67
2022/02/19 12:25:08;;;;;;;;;16.25;16.25;32.90;20.10;;;;;;4901026;29;11544;-69
2022/02/19 12:27:36;;;;;;;;;12.75;12.75;31.40;20.50;;;;;;4900804;29;11518;-70
2022/02/19 12:30:26;;;;;;;;;10.75;10.75;30.20;20.70;;;;;;4900695;29;11611;-68
2022/02/19 12:32:58;;;;;;;;;14.00;14.00;28.50;21.80;;;;;;4900545;29;11643;-67
2022/02/19 12:35:35;;;;;;;;;13.00;13.00;26.50;23.00;;;;;;4900954;29;11526;-69
2022/02/19 12:38:02;;;;;;;;;19.00;19.00;25.40;24.40;;;;;;4900583;29;11516;-68
2022/02/19 12:40:29;;;;;;;;;21.33;21.33;24.90;25.10;;;;;;4900418;29;11555;-70
2022/02/19 12:42:55;;;;;;;;;14.00;14.00;25.10;25.00;;;;;;4900598;29;8778;-67